createdAt,value
2018-08-31T00:01:35.373Z,12.87
2018-08-31T00:04:42.459Z,13.37
2018-08-31T00:08:19.958Z,12.40
2018-08-31T00:11:29.951Z,12.03
2018-08-31T00:13:58.754Z,10.50
2018-08-31T00:16:27.698Z,10.80
2018-08-31T00:18:56.673Z,11.27
2018-08-31T00:21:25.365Z,10.17
2018-08-31T00:24:05.215Z,10.97
2018-08-31T00:26:45.264Z,10.47
2018-08-31T00:29:36.785Z,10.53
2018-08-31T00:34:32.318Z,10.23
2018-08-31T00:39:22.416Z,10.07
2018-08-31T00:42:17.312Z,10.67
2018-08-31T00:44:57.676Z,9.53
2018-08-31T00:47:26.711Z,10.03
2018-08-31T00:49:55.656Z,10.13
2018-08-31T00:52:24.596Z,9.47
2018-08-31T00:54:53.193Z,10.27
2018-08-31T00:57:22.014Z,9.30
2018-08-31T00:59:50.723Z,9.97
2018-08-31T01:02:19.807Z,9.30
2018-08-31T01:04:48.691Z,9.30
2018-08-31T01:07:17.493Z,9.23
2018-08-31T01:09:46.159Z,9.50
2018-08-31T01:12:15.166Z,10.17
2018-08-31T01:14:43.842Z,10.87
2018-08-31T01:17:12.746Z,10.37
2018-08-31T01:19:41.650Z,11.77
2018-08-31T01:22:10.510Z,11.83
2018-08-31T01:24:39.241Z,11.30
2018-08-31T01:27:08.088Z,10.23
2018-08-31T01:29:36.898Z,9.43
2018-08-31T01:32:06.098Z,9.60
2018-08-31T01:34:35.069Z,10.13
2018-08-31T01:37:03.872Z,9.33
2018-08-31T01:39:32.862Z,10.63
2018-08-31T01:42:01.650Z,11.50
2018-08-31T01:44:30.621Z,11.77
2018-08-31T01:46:59.383Z,10.90
2018-08-31T01:49:28.478Z,11.47
2018-08-31T01:51:57.268Z,12.40
2018-08-31T01:54:26.289Z,11.43
2018-08-31T01:56:55.004Z,10.70
2018-08-31T01:59:23.977Z,10.50
2018-08-31T02:01:52.723Z,9.83
2018-08-31T02:04:21.683Z,10.53
2018-08-31T02:06:50.393Z,10.93
2018-08-31T02:09:20.283Z,10.23
2018-08-31T02:11:50.195Z,10.10
2018-08-31T02:14:19.149Z,10.47
2018-08-31T02:16:47.933Z,9.83
2018-08-31T02:19:17.112Z,9.50
2018-08-31T02:21:46.336Z,10.33
2018-08-31T02:24:15.123Z,10.23
2018-08-31T02:26:43.959Z,10.03
2018-08-31T02:29:12.799Z,9.90
2018-08-31T02:31:41.707Z,10.07
2018-08-31T02:34:10.503Z,9.73
2018-08-31T02:36:39.215Z,10.30
2018-08-31T02:39:08.056Z,11.13
2018-08-31T02:41:37.050Z,10.93
2018-08-31T02:44:05.883Z,11.80
2018-08-31T02:46:34.929Z,10.83
2018-08-31T02:49:03.661Z,11.57
2018-08-31T02:51:32.452Z,11.10
2018-08-31T02:54:01.287Z,10.87
2018-08-31T02:56:30.076Z,11.37
2018-08-31T02:58:58.983Z,10.73
2018-08-31T03:01:27.628Z,11.00
2018-08-31T03:03:56.556Z,10.60
2018-08-31T03:06:25.540Z,10.53
2018-08-31T03:08:54.428Z,10.20
2018-08-31T03:11:23.445Z,10.40
2018-08-31T03:13:52.163Z,10.30
2018-08-31T03:16:20.999Z,10.27
2018-08-31T03:18:49.796Z,9.67
2018-08-31T03:21:18.960Z,11.30
2018-08-31T03:23:47.806Z,10.47
2018-08-31T03:26:16.845Z,10.87
2018-08-31T03:28:45.647Z,10.80
2018-08-31T03:31:14.544Z,11.77
2018-08-31T03:33:43.279Z,11.70
2018-08-31T03:36:12.248Z,11.47
2018-08-31T03:38:41.123Z,11.23
2018-08-31T03:41:09.768Z,11.77
2018-08-31T03:43:38.592Z,10.70
2018-08-31T03:46:07.314Z,10.67
2018-08-31T03:48:36.250Z,11.30
2018-08-31T03:51:05.208Z,10.57
2018-08-31T03:53:34.202Z,11.37
2018-08-31T03:56:02.868Z,11.00
2018-08-31T03:58:31.728Z,11.50
2018-08-31T04:01:00.531Z,11.43
2018-08-31T04:03:29.424Z,11.07
2018-08-31T04:05:58.273Z,10.67
2018-08-31T04:08:27.264Z,11.00
2018-08-31T04:10:56.269Z,11.90
2018-08-31T04:13:24.959Z,11.17
2018-08-31T04:15:53.703Z,10.67
2018-08-31T04:18:22.840Z,10.03
2018-08-31T04:20:51.666Z,10.70
2018-08-31T04:23:20.359Z,11.07
2018-08-31T04:25:49.312Z,10.33
2018-08-31T04:28:18.200Z,10.57
2018-08-31T04:30:46.981Z,11.33
2018-08-31T04:33:15.982Z,11.63
2018-08-31T04:35:44.928Z,11.55
2018-08-31T04:38:58.247Z,11.70
2018-08-31T04:41:33.278Z,12.47
2018-08-31T04:44:31.496Z,12.60
2018-08-31T04:47:36.003Z,11.47
2018-08-31T04:50:32.360Z,11.97
2018-08-31T04:53:01.466Z,11.50
2018-08-31T04:55:30.395Z,13.10
2018-08-31T04:57:59.121Z,13.17
2018-08-31T05:00:27.935Z,13.80
2018-08-31T05:02:56.745Z,14.97
2018-08-31T05:05:25.576Z,14.23
2018-08-31T05:07:54.627Z,12.73
2018-08-31T05:10:23.434Z,11.87
2018-08-31T05:12:52.378Z,12.27
2018-08-31T05:15:21.195Z,16.27
2018-08-31T05:21:17.847Z,11.27
2018-08-31T05:23:46.811Z,11.57
2018-08-31T05:26:15.652Z,12.10
2018-08-31T05:28:44.530Z,12.00
2018-08-31T05:31:13.376Z,11.57
2018-08-31T05:33:42.378Z,12.70
2018-08-31T05:36:11.375Z,12.07
2018-08-31T05:38:40.369Z,11.93
2018-08-31T05:41:09.134Z,12.13
2018-08-31T05:43:38.147Z,13.53
2018-08-31T05:46:06.959Z,12.23
2018-08-31T05:48:35.930Z,12.60
2018-08-31T05:51:04.828Z,12.73
2018-08-31T05:53:33.889Z,12.67
2018-08-31T05:56:02.807Z,12.37
2018-08-31T05:58:31.603Z,13.63
2018-08-31T06:01:00.436Z,13.57
2018-08-31T06:03:29.180Z,13.57
2018-08-31T06:05:58.118Z,14.00
2018-08-31T06:08:27.291Z,14.27
2018-08-31T06:10:55.999Z,15.10
2018-08-31T06:13:25.039Z,16.50
2018-08-31T06:15:54.130Z,16.30
2018-08-31T06:18:22.996Z,16.27
2018-08-31T06:20:51.744Z,29.97
2018-08-31T06:23:20.884Z,20.53
2018-08-31T06:25:49.863Z,14.90
2018-08-31T06:28:18.619Z,14.67
2018-08-31T06:30:47.480Z,14.90
2018-08-31T06:33:16.077Z,13.83
2018-08-31T06:35:44.759Z,15.47
2018-08-31T06:38:13.445Z,14.93
2018-08-31T06:40:42.576Z,14.40
2018-08-31T06:43:11.240Z,13.30
2018-08-31T06:45:40.098Z,15.17
2018-08-31T06:48:08.829Z,12.47
2018-08-31T06:50:37.616Z,11.13
2018-08-31T06:53:06.453Z,10.70
2018-08-31T06:55:35.361Z,10.97
2018-08-31T06:58:04.333Z,11.03
2018-08-31T07:00:33.191Z,12.07
2018-08-31T07:03:01.979Z,11.77
2018-08-31T07:05:30.723Z,12.40
2018-08-31T07:07:59.612Z,13.13
2018-08-31T07:10:28.330Z,11.53
2018-08-31T07:12:57.166Z,10.90
2018-08-31T07:15:25.969Z,10.40
2018-08-31T07:17:54.805Z,10.43
2018-08-31T07:20:23.642Z,11.43
2018-08-31T07:22:52.526Z,10.67
2018-08-31T07:25:21.279Z,10.30
2018-08-31T07:27:50.140Z,10.60
2018-08-31T07:30:18.885Z,9.87
2018-08-31T07:32:47.624Z,11.10
2018-08-31T07:35:16.392Z,10.90
